KPGV/PGV METAR and TAF weather

Enter ICAO airport designator
Station Type Date Time Source
KPGV METAR 2022/11/30 09:55 UTC NOAA

KPGV 300955Z AUTO 00000KT 10SM OVC043 11/11 A3008 RMK AO2


Station Type Date Time Source
KPGV Decoded METAR 2022/11/30 09:55 UTC NOAA

Pitt-Greenville Airport, NC, United States (KPGV) 35-38N 077-24W
Nov 30, 2022 - 04:55 AM EST / 2022.11.30 0955 UTC
Wind: Calm:0
Visibility: 10 mile(s):0
Sky conditions: overcast
Temperature: 51 F (11 C)
Dew Point: 51 F (11 C)
Relative Humidity: 100%
Pressure (altimeter): 30.08 in. Hg (1018 hPa)
ob: KPGV 300955Z AUTO 00000KT 10SM OVC043 11/11 A3008 RMK AO2
cycle: 10

Station Type Date Time Source
KPGV TAF 2022/11/30 06:42 UTC NOAA

TAF KPGV 300539Z 3006/0106 12003KT P6SM BKN040 BKN060
FM301300 19008KT 6SM -SHRA BR SCT020 OVC040
FM301800 20011G17KT P6SM OVC020
FM010000 32009KT P6SM SKC
AMD LTD TO CLD VIS AND WIND

Example: see airport list